KCJR

Culpeper Regional Airport

Culpeper, Virginia, USA
METAR KCJR 172115Z AUTO 01004KT 2SM -SN SCT004 BKN017 OVC022 01/00 A3020 RMK AO2 T00100000
Observed Flight Rules
Feb-17 @ 21:15 UTC (20 minutes ago) Instrument Flight Rules
Wind Visibility Clouds Conditions
10° at 4 knots 2 miles
  • Scattered at 400' AGL
  • Broken at 1,700' AGL
  • Overcast at 2,200' AGL
  • Light Snow
Temperatures Readings
Current 1°C / 34°F
Dewpoint 0°C / 32°F
Humidity 93%
Altimeter 30.2" Hg
Pressure 1023 hPa
Elevation 97
METAR KCJR 172115Z AUTO 01004KT 2SM -SN SCT004 BKN017 OVC022 01/00 A3020 RMK AO2 T00100000
Observed Flight Rules
Feb-17 @ 21:15 UTC
(20 minutes ago)
IFR
Wind Visibility
10° at 4 knots 2 miles
Clouds
  • Scattered at 400' AGL
  • Broken at 1,700' AGL
  • Overcast at 2,200' AGL
Conditions
  • Light Snow
Temperature Dewpoint
1°C / 34°F 0°C / 32°F
Humidity Altimeter Pressure
93% 30.2" Hg 1023 hPa